LAN1498 LEBL-LEPA
Flight info
| Callsign | LAN1498 |
|---|---|
| Flight time | 0h 31m |
| Altitude | 17000 |
| Route | LARPA N859 TOLSO |
| Aircraft | A320/M-SDE3FGHIRWY/LB1 |
Departure
| Time | 2026-05-05 12:36 |
|---|---|
| Airport | Josep Tarradellas Barcelona-El Prat Airport (LEBL) |
Arrival
| Time | 2026-05-05 13:07 |
|---|---|
| Airport | Palma de Mallorca Airport (LEPA) |
| Time | Latitude | Longitude | Altitude | Speed | Heading |
|---|---|---|---|---|---|
| 2026-05-05 12:19 | 41.29075 | 2.07192 | 19 ft | 0 kts | 154° |
| 2026-05-05 12:29 | 41.29086 | 2.07185 | 19 ft | 2 kts | 150° |
| 2026-05-05 12:29 | 41.29097 | 2.07176 | 21 ft | 2 kts | 146° |
| 2026-05-05 12:29 | 41.29108 | 2.07167 | 21 ft | 2 kts | 142° |
| 2026-05-05 12:29 | 41.29118 | 2.07157 | 21 ft | 2 kts | 134° |
| 2026-05-05 12:30 | 41.29127 | 2.07145 | 19 ft | 1 kts | 120° |
| 2026-05-05 12:30 | 41.29132 | 2.07133 | 18 ft | 1 kts | 98° |
| 2026-05-05 12:30 | 41.29134 | 2.07118 | 22 ft | 2 kts | 80° |
| 2026-05-05 12:30 | 41.29132 | 2.07107 | 18 ft | 1 kts | 79° |
| 2026-05-05 12:31 | 41.29131 | 2.07100 | 18 ft | 1 kts | 62° |
| 2026-05-05 12:31 | 41.29128 | 2.07093 | 18 ft | 1 kts | 72° |
| 2026-05-05 12:31 | 41.29127 | 2.07087 | 18 ft | 0 kts | 63° |
| 2026-05-05 12:32 | 41.29127 | 2.07088 | 18 ft | 1 kts | 63° |
| 2026-05-05 12:32 | 41.29170 | 2.07083 | 18 ft | 14 kts | 344° |
| 2026-05-05 12:32 | 41.29268 | 2.07088 | 18 ft | 14 kts | 13° |
| 2026-05-05 12:32 | 41.29308 | 2.07084 | 18 ft | 0 kts | 348° |
| 2026-05-05 12:33 | 41.29323 | 2.07079 | 18 ft | 8 kts | 342° |
| 2026-05-05 12:33 | 41.29375 | 2.07053 | 18 ft | 8 kts | 345° |
| 2026-05-05 12:34 | 41.29427 | 2.07061 | 19 ft | 7 kts | 32° |
| 2026-05-05 12:34 | 41.29439 | 2.07079 | 17 ft | 0 kts | 53° |
| 2026-05-05 12:35 | 41.29487 | 2.07188 | 19 ft | 45 kts | 64° |
| 2026-05-05 12:35 | 41.29713 | 2.07882 | 18 ft | 115 kts | 66° |
| 2026-05-05 12:35 | 41.30119 | 2.09077 | 53 ft | 162 kts | 70° |
| 2026-05-05 12:36 | 41.30562 | 2.10400 | 855 ft | 157 kts | 66° |
| 2026-05-05 12:36 | 41.31032 | 2.11770 | 1438 ft | 172 kts | 65° |
| 2026-05-05 12:36 | 41.31556 | 2.13288 | 1821 ft | 194 kts | 65° |
| 2026-05-05 12:36 | 41.32149 | 2.14999 | 2187 ft | 217 kts | 65° |
| 2026-05-05 12:37 | 41.32796 | 2.16938 | 2619 ft | 242 kts | 71° |
| 2026-05-05 12:37 | 41.32866 | 2.19245 | 3126 ft | 263 kts | 109° |
| 2026-05-05 12:37 | 41.31919 | 2.21339 | 3993 ft | 266 kts | 130° |
| 2026-05-05 12:37 | 41.30789 | 2.23306 | 5032 ft | 270 kts | 130° |
| 2026-05-05 12:38 | 41.29653 | 2.25313 | 5992 ft | 275 kts | 127° |
| 2026-05-05 12:38 | 41.28656 | 2.27524 | 6909 ft | 282 kts | 121° |
| 2026-05-05 12:38 | 41.27785 | 2.29881 | 7804 ft | 286 kts | 118° |
| 2026-05-05 12:38 | 41.26954 | 2.32311 | 8723 ft | 292 kts | 118° |
| 2026-05-05 12:39 | 41.26113 | 2.34792 | 9622 ft | 296 kts | 119° |
| 2026-05-05 12:39 | 41.25244 | 2.37299 | 10453 ft | 301 kts | 120° |
| 2026-05-05 12:39 | 41.24321 | 2.39892 | 10861 ft | 323 kts | 120° |
| 2026-05-05 12:39 | 41.23302 | 2.42688 | 11159 ft | 347 kts | 120° |
| 2026-05-05 12:40 | 41.22208 | 2.45655 | 11358 ft | 370 kts | 120° |
| 2026-05-05 12:40 | 41.21037 | 2.48821 | 11591 ft | 390 kts | 120° |
| 2026-05-05 12:40 | 41.19831 | 2.52093 | 12170 ft | 398 kts | 120° |
| 2026-05-05 12:40 | 41.18612 | 2.55412 | 12858 ft | 402 kts | 120° |
| 2026-05-05 12:41 | 41.17273 | 2.58679 | 13522 ft | 402 kts | 128° |
| 2026-05-05 12:41 | 41.15491 | 2.61509 | 14131 ft | 399 kts | 141° |
| 2026-05-05 12:41 | 41.13304 | 2.63750 | 14713 ft | 397 kts | 153° |
| 2026-05-05 12:41 | 41.10844 | 2.65374 | 15277 ft | 394 kts | 165° |
| 2026-05-05 12:42 | 41.08202 | 2.66210 | 15812 ft | 390 kts | 178° |
| 2026-05-05 12:42 | 41.05492 | 2.66200 | 16357 ft | 389 kts | 189° |
| 2026-05-05 12:42 | 41.02793 | 2.65892 | 16810 ft | 392 kts | 189° |
| 2026-05-05 12:42 | 41.00071 | 2.65578 | 16925 ft | 396 kts | 189° |
| 2026-05-05 12:43 | 40.97339 | 2.65166 | 16945 ft | 402 kts | 194° |
| 2026-05-05 12:43 | 40.94652 | 2.64182 | 16945 ft | 399 kts | 204° |
| 2026-05-05 12:43 | 40.92162 | 2.62601 | 16942 ft | 397 kts | 213° |
| 2026-05-05 12:43 | 40.89895 | 2.60535 | 16948 ft | 396 kts | 218° |
| 2026-05-05 12:44 | 40.87659 | 2.58401 | 16929 ft | 396 kts | 218° |
| 2026-05-05 12:44 | 40.85422 | 2.56281 | 16942 ft | 396 kts | 217° |
| 2026-05-05 12:44 | 40.83178 | 2.54165 | 16942 ft | 396 kts | 217° |
| 2026-05-05 12:44 | 40.80933 | 2.52054 | 16942 ft | 396 kts | 217° |
| 2026-05-05 12:45 | 40.78685 | 2.49942 | 16942 ft | 396 kts | 217° |
| 2026-05-05 12:45 | 40.76462 | 2.47855 | 16903 ft | 389 kts | 217° |
| 2026-05-05 12:45 | 40.74266 | 2.45788 | 16940 ft | 386 kts | 217° |
| 2026-05-05 12:45 | 40.72084 | 2.43736 | 16941 ft | 385 kts | 217° |
| 2026-05-05 12:46 | 40.69904 | 2.41684 | 16941 ft | 384 kts | 217° |
| 2026-05-05 12:46 | 40.67733 | 2.39637 | 16940 ft | 383 kts | 217° |
| 2026-05-05 12:46 | 40.65424 | 2.37872 | 16946 ft | 391 kts | 207° |
| 2026-05-05 12:46 | 40.62807 | 2.36734 | 16945 ft | 402 kts | 195° |
| 2026-05-05 12:47 | 40.59999 | 2.36351 | 16944 ft | 410 kts | 184° |
| 2026-05-05 12:47 | 40.57137 | 2.36793 | 16946 ft | 418 kts | 172° |
| 2026-05-05 12:47 | 40.54319 | 2.37775 | 16944 ft | 420 kts | 170° |
| 2026-05-05 12:47 | 40.51535 | 2.38758 | 16946 ft | 420 kts | 170° |
| 2026-05-05 12:48 | 40.48711 | 2.39746 | 16946 ft | 420 kts | 170° |
| 2026-05-05 12:48 | 40.45885 | 2.40730 | 16946 ft | 420 kts | 170° |
| 2026-05-05 12:48 | 40.43069 | 2.41711 | 16937 ft | 420 kts | 170° |
| 2026-05-05 12:48 | 40.40245 | 2.42693 | 16943 ft | 420 kts | 170° |
| 2026-05-05 12:49 | 40.37414 | 2.43674 | 16943 ft | 420 kts | 170° |
| 2026-05-05 12:49 | 40.34587 | 2.44656 | 16946 ft | 421 kts | 170° |
| 2026-05-05 12:49 | 40.31761 | 2.45638 | 16946 ft | 421 kts | 170° |
| 2026-05-05 12:49 | 40.28925 | 2.46619 | 16949 ft | 421 kts | 170° |
| 2026-05-05 12:50 | 40.26089 | 2.47600 | 16949 ft | 421 kts | 169° |
| 2026-05-05 12:50 | 40.23336 | 2.48937 | 16933 ft | 427 kts | 159° |
| 2026-05-05 12:50 | 40.21638 | 2.50210 | 16750 ft | 422 kts | 151° |
| 2026-05-05 12:50 | 40.19413 | 2.52643 | 16485 ft | 415 kts | 139° |
| 2026-05-05 12:51 | 40.17629 | 2.55570 | 16222 ft | 408 kts | 128° |
| 2026-05-05 12:51 | 40.16225 | 2.58748 | 15979 ft | 398 kts | 124° |
| 2026-05-05 12:51 | 40.14874 | 2.61853 | 15728 ft | 387 kts | 125° |
| 2026-05-05 12:51 | 40.13547 | 2.64863 | 15480 ft | 377 kts | 125° |
| 2026-05-05 12:52 | 40.12248 | 2.67787 | 15222 ft | 368 kts | 125° |
| 2026-05-05 12:52 | 40.10976 | 2.70636 | 14982 ft | 359 kts | 125° |
| 2026-05-05 12:52 | 40.09731 | 2.73425 | 14735 ft | 351 kts | 125° |
| 2026-05-05 12:52 | 40.08518 | 2.76151 | 14488 ft | 344 kts | 125° |
| 2026-05-05 12:53 | 40.07328 | 2.78827 | 14256 ft | 337 kts | 125° |
| 2026-05-05 12:53 | 40.06164 | 2.81442 | 14025 ft | 331 kts | 125° |
| 2026-05-05 12:53 | 40.05013 | 2.84026 | 13786 ft | 326 kts | 125° |
| 2026-05-05 12:53 | 40.03886 | 2.86556 | 13526 ft | 320 kts | 125° |
| 2026-05-05 12:54 | 40.01678 | 2.91498 | 13002 ft | 314 kts | 125° |
| 2026-05-05 12:54 | 40.00565 | 2.93987 | 12735 ft | 313 kts | 125° |
| 2026-05-05 12:54 | 39.99492 | 2.96381 | 12430 ft | 312 kts | 124° |
| 2026-05-05 12:55 | 39.98394 | 2.98832 | 11971 ft | 313 kts | 124° |
| 2026-05-05 12:55 | 39.97299 | 3.01279 | 11626 ft | 311 kts | 124° |
| 2026-05-05 12:55 | 39.96207 | 3.03719 | 11202 ft | 311 kts | 124° |
| 2026-05-05 12:55 | 39.95133 | 3.06119 | 10663 ft | 305 kts | 124° |
| 2026-05-05 12:56 | 39.93941 | 3.08347 | 10109 ft | 294 kts | 139° |
| 2026-05-05 12:56 | 39.92348 | 3.09920 | 9626 ft | 283 kts | 157° |
| 2026-05-05 12:56 | 39.90511 | 3.10727 | 9184 ft | 276 kts | 174° |
| 2026-05-05 12:56 | 39.88650 | 3.10774 | 8779 ft | 267 kts | 190° |
| 2026-05-05 12:57 | 39.86892 | 3.10482 | 8610 ft | 246 kts | 190° |
| 2026-05-05 12:57 | 39.85230 | 3.10209 | 8248 ft | 237 kts | 190° |
| 2026-05-05 12:57 | 39.83625 | 3.09944 | 7757 ft | 234 kts | 189° |
| 2026-05-05 12:57 | 39.82025 | 3.09680 | 7386 ft | 227 kts | 189° |
| 2026-05-05 12:58 | 39.80487 | 3.09426 | 7052 ft | 219 kts | 189° |
| 2026-05-05 12:58 | 39.78979 | 3.09176 | 6631 ft | 218 kts | 189° |
| 2026-05-05 12:58 | 39.77482 | 3.08926 | 6265 ft | 216 kts | 189° |
| 2026-05-05 12:58 | 39.75990 | 3.08678 | 5936 ft | 215 kts | 190° |
| 2026-05-05 12:59 | 39.74523 | 3.08435 | 5619 ft | 212 kts | 191° |
| 2026-05-05 12:59 | 39.73029 | 3.07896 | 5289 ft | 242 kts | 206° |
| 2026-05-05 12:59 | 39.71634 | 3.06743 | 4961 ft | 232 kts | 223° |
| 2026-05-05 13:00 | 39.69896 | 3.03548 | 4513 ft | 207 kts | 241° |
| 2026-05-05 13:00 | 39.69187 | 3.01960 | 4416 ft | 199 kts | 240° |
| 2026-05-05 13:01 | 39.67222 | 2.97605 | 4163 ft | 168 kts | 239° |
| 2026-05-05 13:01 | 39.66651 | 2.96345 | 4082 ft | 157 kts | 239° |
| 2026-05-05 13:01 | 39.66084 | 2.95135 | 3831 ft | 158 kts | 238° |
| 2026-05-05 13:01 | 39.65516 | 2.93940 | 3610 ft | 157 kts | 238° |
| 2026-05-05 13:02 | 39.64951 | 2.92749 | 3412 ft | 153 kts | 237° |
| 2026-05-05 13:02 | 39.64402 | 2.91591 | 3185 ft | 148 kts | 238° |
| 2026-05-05 13:02 | 39.63865 | 2.90459 | 2985 ft | 146 kts | 236° |
| 2026-05-05 13:02 | 39.63338 | 2.89347 | 2786 ft | 143 kts | 236° |
| 2026-05-05 13:03 | 39.62827 | 2.88261 | 2599 ft | 137 kts | 237° |
| 2026-05-05 13:03 | 39.62339 | 2.87224 | 2418 ft | 133 kts | 235° |
| 2026-05-05 13:03 | 39.61862 | 2.86213 | 2223 ft | 133 kts | 236° |
| 2026-05-05 13:03 | 39.61386 | 2.85208 | 2051 ft | 128 kts | 235° |
| 2026-05-05 13:04 | 39.60918 | 2.84216 | 1863 ft | 129 kts | 234° |
| 2026-05-05 13:04 | 39.60453 | 2.83232 | 1688 ft | 128 kts | 235° |
| 2026-05-05 13:04 | 39.59979 | 2.82233 | 1504 ft | 129 kts | 237° |
| 2026-05-05 13:04 | 39.59520 | 2.81261 | 1329 ft | 129 kts | 236° |
| 2026-05-05 13:05 | 39.59044 | 2.80276 | 1150 ft | 131 kts | 235° |
| 2026-05-05 13:05 | 39.58566 | 2.79262 | 939 ft | 132 kts | 237° |
| 2026-05-05 13:05 | 39.58100 | 2.78261 | 779 ft | 129 kts | 238° |
| 2026-05-05 13:05 | 39.57630 | 2.77260 | 597 ft | 128 kts | 236° |
| 2026-05-05 13:06 | 39.57159 | 2.76276 | 402 ft | 126 kts | 238° |
| 2026-05-05 13:06 | 39.56702 | 2.75299 | 251 ft | 127 kts | 237° |
| 2026-05-05 13:06 | 39.56248 | 2.74320 | 105 ft | 125 kts | 237° |
| 2026-05-05 13:06 | 39.55802 | 2.73374 | 40 ft | 113 kts | 238° |
| 2026-05-05 13:07 | 39.55557 | 2.72857 | 38 ft | 12 kts | 240° |
| 2026-05-05 13:07 | 39.55492 | 2.72758 | 38 ft | 17 kts | 219° |
| 2026-05-05 13:07 | 39.55384 | 2.72665 | 38 ft | 14 kts | 209° |
| 2026-05-05 13:07 | 39.55292 | 2.72599 | 38 ft | 18 kts | 209° |
| 2026-05-05 13:08 | 39.55187 | 2.72503 | 38 ft | 15 kts | 234° |
| 2026-05-05 13:08 | 39.55086 | 2.72516 | 38 ft | 11 kts | 150° |
| 2026-05-05 13:08 | 39.55048 | 2.72601 | 38 ft | 14 kts | 97° |
| 2026-05-05 13:08 | 39.55007 | 2.72662 | 38 ft | 8 kts | 146° |
| 2026-05-05 13:09 | 39.54996 | 2.72671 | 38 ft | 0 kts | 152° |